sensor_id;sensor_type;location;lat;lon;timestamp;P1;durP1;ratioP1;P2;durP2;ratioP2
7398;SDS011;3740;50.700;7.184;2024-01-11T00:00:43;40.60;;;30.77;;
7398;SDS011;3740;50.700;7.184;2024-01-11T00:03:09;44.70;;;33.20;;
7398;SDS011;3740;50.700;7.184;2024-01-11T00:05:35;45.70;;;33.30;;
7398;SDS011;3740;50.700;7.184;2024-01-11T00:08:00;44.53;;;32.83;;
7398;SDS011;3740;50.700;7.184;2024-01-11T00:10:26;45.57;;;34.83;;
7398;SDS011;3740;50.700;7.184;2024-01-11T00:12:51;47.53;;;35.37;;
7398;SDS011;3740;50.700;7.184;2024-01-11T00:15:17;50.23;;;35.40;;
7398;SDS011;3740;50.700;7.184;2024-01-11T00:17:42;48.47;;;35.17;;
7398;SDS011;3740;50.700;7.184;2024-01-11T00:20:08;48.03;;;35.77;;
7398;SDS011;3740;50.700;7.184;2024-01-11T00:22:34;44.87;;;34.50;;
7398;SDS011;3740;50.700;7.184;2024-01-11T00:25:00;45.33;;;35.50;;
7398;SDS011;3740;50.700;7.184;2024-01-11T00:27:25;47.00;;;36.07;;
7398;SDS011;3740;50.700;7.184;2024-01-11T00:29:51;47.57;;;35.90;;
7398;SDS011;3740;50.700;7.184;2024-01-11T00:32:16;46.00;;;34.83;;
7398;SDS011;3740;50.700;7.184;2024-01-11T00:34:42;47.30;;;35.50;;
7398;SDS011;3740;50.700;7.184;2024-01-11T00:37:08;41.33;;;32.27;;
7398;SDS011;3740;50.700;7.184;2024-01-11T00:39:33;45.10;;;33.80;;
7398;SDS011;3740;50.700;7.184;2024-01-11T00:41:59;46.73;;;33.27;;
7398;SDS011;3740;50.700;7.184;2024-01-11T00:44:24;47.17;;;35.50;;
7398;SDS011;3740;50.700;7.184;2024-01-11T00:46:50;51.23;;;36.57;;
7398;SDS011;3740;50.700;7.184;2024-01-11T00:49:16;54.17;;;37.33;;
7398;SDS011;3740;50.700;7.184;2024-01-11T00:51:41;50.97;;;36.23;;
7398;SDS011;3740;50.700;7.184;2024-01-11T00:54:07;45.00;;;34.50;;
7398;SDS011;3740;50.700;7.184;2024-01-11T00:56:32;47.70;;;34.97;;
7398;SDS011;3740;50.700;7.184;2024-01-11T00:58:58;45.83;;;35.23;;
7398;SDS011;3740;50.700;7.184;2024-01-11T01:01:23;47.80;;;36.40;;
7398;SDS011;3740;50.700;7.184;2024-01-11T01:03:49;44.33;;;34.00;;
7398;SDS011;3740;50.700;7.184;2024-01-11T01:06:14;42.20;;;33.77;;
7398;SDS011;3740;50.700;7.184;2024-01-11T01:08:40;49.03;;;34.23;;
7398;SDS011;3740;50.700;7.184;2024-01-11T01:11:05;41.50;;;33.10;;
7398;SDS011;3740;50.700;7.184;2024-01-11T01:13:31;44.43;;;34.40;;
7398;SDS011;3740;50.700;7.184;2024-01-11T01:15:57;46.20;;;35.23;;
7398;SDS011;3740;50.700;7.184;2024-01-11T01:18:23;44.53;;;33.10;;
7398;SDS011;3740;50.700;7.184;2024-01-11T01:20:48;42.07;;;33.07;;
7398;SDS011;3740;50.700;7.184;2024-01-11T01:23:14;42.83;;;32.00;;
7398;SDS011;3740;50.700;7.184;2024-01-11T01:25:39;38.23;;;31.37;;
7398;SDS011;3740;50.700;7.184;2024-01-11T01:28:05;41.47;;;32.20;;
7398;SDS011;3740;50.700;7.184;2024-01-11T01:30:30;43.03;;;32.20;;
7398;SDS011;3740;50.700;7.184;2024-01-11T01:32:56;42.33;;;33.33;;
7398;SDS011;3740;50.700;7.184;2024-01-11T01:35:21;41.63;;;31.77;;
7398;SDS011;3740;50.700;7.184;2024-01-11T01:37:47;39.93;;;30.27;;
7398;SDS011;3740;50.700;7.184;2024-01-11T01:40:13;36.70;;;29.03;;
7398;SDS011;3740;50.700;7.184;2024-01-11T01:42:45;39.23;;;30.73;;
7398;SDS011;3740;50.700;7.184;2024-01-11T01:45:11;38.57;;;29.67;;
7398;SDS011;3740;50.700;7.184;2024-01-11T01:47:37;38.57;;;29.53;;
7398;SDS011;3740;50.700;7.184;2024-01-11T01:50:05;40.60;;;30.77;;
7398;SDS011;3740;50.700;7.184;2024-01-11T01:52:32;39.43;;;30.83;;
7398;SDS011;3740;50.700;7.184;2024-01-11T01:54:59;43.20;;;33.20;;
7398;SDS011;3740;50.700;7.184;2024-01-11T01:57:27;42.83;;;32.23;;
7398;SDS011;3740;50.700;7.184;2024-01-11T01:59:53;43.63;;;34.20;;
7398;SDS011;3740;50.700;7.184;2024-01-11T02:02:19;42.40;;;32.90;;
7398;SDS011;3740;50.700;7.184;2024-01-11T02:04:45;39.90;;;32.63;;
7398;SDS011;3740;50.700;7.184;2024-01-11T02:07:11;43.67;;;32.60;;
7398;SDS011;3740;50.700;7.184;2024-01-11T02:09:37;40.53;;;32.13;;
7398;SDS011;3740;50.700;7.184;2024-01-11T02:12:04;38.43;;;28.93;;
7398;SDS011;3740;50.700;7.184;2024-01-11T02:14:31;37.47;;;29.77;;
7398;SDS011;3740;50.700;7.184;2024-01-11T02:16:57;37.37;;;28.93;;
7398;SDS011;3740;50.700;7.184;2024-01-11T02:19:22;37.97;;;29.13;;
7398;SDS011;3740;50.700;7.184;2024-01-11T02:21:48;35.93;;;28.97;;
7398;SDS011;3740;50.700;7.184;2024-01-11T02:24:17;35.90;;;27.60;;
7398;SDS011;3740;50.700;7.184;2024-01-11T02:29:28;34.90;;;27.07;;
7398;SDS011;3740;50.700;7.184;2024-01-11T02:31:55;37.13;;;28.00;;
7398;SDS011;3740;50.700;7.184;2024-01-11T02:34:21;33.90;;;27.03;;
7398;SDS011;3740;50.700;7.184;2024-01-11T02:36:48;35.00;;;27.17;;
7398;SDS011;3740;50.700;7.184;2024-01-11T02:39:15;34.73;;;27.37;;
7398;SDS011;3740;50.700;7.184;2024-01-11T02:41:43;34.53;;;28.07;;
7398;SDS011;3740;50.700;7.184;2024-01-11T02:44:09;34.13;;;26.50;;
7398;SDS011;3740;50.700;7.184;2024-01-11T02:46:34;33.77;;;26.23;;
7398;SDS011;3740;50.700;7.184;2024-01-11T02:49:00;33.90;;;26.17;;
7398;SDS011;3740;50.700;7.184;2024-01-11T02:51:25;33.20;;;25.80;;
7398;SDS011;3740;50.700;7.184;2024-01-11T02:53:51;33.50;;;26.77;;
7398;SDS011;3740;50.700;7.184;2024-01-11T02:56:17;31.87;;;25.87;;
7398;SDS011;3740;50.700;7.184;2024-01-11T02:58:42;34.50;;;26.47;;
7398;SDS011;3740;50.700;7.184;2024-01-11T03:01:08;33.07;;;26.30;;
7398;SDS011;3740;50.700;7.184;2024-01-11T03:03:33;33.53;;;25.60;;
7398;SDS011;3740;50.700;7.184;2024-01-11T03:05:59;32.13;;;25.50;;
7398;SDS011;3740;50.700;7.184;2024-01-11T03:08:26;30.37;;;24.73;;
7398;SDS011;3740;50.700;7.184;2024-01-11T03:10:51;34.50;;;26.00;;
7398;SDS011;3740;50.700;7.184;2024-01-11T03:13:17;31.37;;;26.03;;
7398;SDS011;3740;50.700;7.184;2024-01-11T03:15:42;32.83;;;25.77;;
7398;SDS011;3740;50.700;7.184;2024-01-11T03:18:08;34.00;;;25.23;;
7398;SDS011;3740;50.700;7.184;2024-01-11T03:20:34;29.87;;;25.13;;
7398;SDS011;3740;50.700;7.184;2024-01-11T03:23:00;28.50;;;24.27;;
7398;SDS011;3740;50.700;7.184;2024-01-11T03:25:25;35.57;;;26.10;;
7398;SDS011;3740;50.700;7.184;2024-01-11T03:27:51;31.13;;;24.70;;
7398;SDS011;3740;50.700;7.184;2024-01-11T03:30:16;33.57;;;25.50;;
7398;SDS011;3740;50.700;7.184;2024-01-11T03:32:42;33.80;;;26.43;;
7398;SDS011;3740;50.700;7.184;2024-01-11T03:35:08;33.70;;;26.60;;
7398;SDS011;3740;50.700;7.184;2024-01-11T03:37:34;31.23;;;26.10;;
7398;SDS011;3740;50.700;7.184;2024-01-11T03:40:00;34.00;;;25.40;;
7398;SDS011;3740;50.700;7.184;2024-01-11T03:42:27;36.40;;;27.90;;
7398;SDS011;3740;50.700;7.184;2024-01-11T03:44:53;31.60;;;25.33;;
7398;SDS011;3740;50.700;7.184;2024-01-11T03:47:19;31.50;;;25.30;;
7398;SDS011;3740;50.700;7.184;2024-01-11T03:49:44;31.80;;;24.97;;
7398;SDS011;3740;50.700;7.184;2024-01-11T03:52:10;33.33;;;26.60;;
7398;SDS011;3740;50.700;7.184;2024-01-11T03:54:35;35.60;;;26.63;;
7398;SDS011;3740;50.700;7.184;2024-01-11T03:57:01;31.90;;;26.33;;
7398;SDS011;3740;50.700;7.184;2024-01-11T03:59:27;31.40;;;25.43;;
7398;SDS011;3740;50.700;7.184;2024-01-11T04:01:53;33.27;;;25.40;;
7398;SDS011;3740;50.700;7.184;2024-01-11T04:04:18;32.67;;;25.33;;
7398;SDS011;3740;50.700;7.184;2024-01-11T04:06:44;31.30;;;25.13;;
7398;SDS011;3740;50.700;7.184;2024-01-11T04:09:10;32.03;;;25.00;;
7398;SDS011;3740;50.700;7.184;2024-01-11T04:11:36;31.17;;;24.47;;
7398;SDS011;3740;50.700;7.184;2024-01-11T04:14:01;31.03;;;24.50;;
7398;SDS011;3740;50.700;7.184;2024-01-11T04:16:27;31.50;;;24.43;;
7398;SDS011;3740;50.700;7.184;2024-01-11T04:18:53;34.93;;;25.30;;
7398;SDS011;3740;50.700;7.184;2024-01-11T04:21:25;32.20;;;25.07;;
7398;SDS011;3740;50.700;7.184;2024-01-11T04:23:55;31.93;;;25.40;;
7398;SDS011;3740;50.700;7.184;2024-01-11T04:26:21;31.07;;;25.20;;
7398;SDS011;3740;50.700;7.184;2024-01-11T04:28:47;32.67;;;25.13;;
7398;SDS011;3740;50.700;7.184;2024-01-11T04:31:14;33.67;;;25.37;;
7398;SDS011;3740;50.700;7.184;2024-01-11T04:33:41;31.63;;;24.90;;
7398;SDS011;3740;50.700;7.184;2024-01-11T04:36:08;30.37;;;25.50;;
7398;SDS011;3740;50.700;7.184;2024-01-11T04:38:34;30.20;;;25.13;;
7398;SDS011;3740;50.700;7.184;2024-01-11T04:40:59;32.87;;;25.73;;
7398;SDS011;3740;50.700;7.184;2024-01-11T04:43:25;32.87;;;25.60;;
7398;SDS011;3740;50.700;7.184;2024-01-11T04:45:51;32.43;;;26.17;;
7398;SDS011;3740;50.700;7.184;2024-01-11T04:48:17;33.78;;;27.73;;
7398;SDS011;3740;50.700;7.184;2024-01-11T04:50:43;33.40;;;26.70;;
7398;SDS011;3740;50.700;7.184;2024-01-11T04:53:09;33.23;;;24.87;;
7398;SDS011;3740;50.700;7.184;2024-01-11T04:55:35;31.27;;;24.93;;
7398;SDS011;3740;50.700;7.184;2024-01-11T04:58:00;31.60;;;24.80;;
7398;SDS011;3740;50.700;7.184;2024-01-11T05:00:26;34.87;;;25.83;;
7398;SDS011;3740;50.700;7.184;2024-01-11T05:02:51;35.07;;;27.00;;
7398;SDS011;3740;50.700;7.184;2024-01-11T05:05:17;33.33;;;27.87;;
7398;SDS011;3740;50.700;7.184;2024-01-11T05:07:42;34.23;;;27.67;;
7398;SDS011;3740;50.700;7.184;2024-01-11T05:10:08;32.43;;;25.87;;
7398;SDS011;3740;50.700;7.184;2024-01-11T05:12:33;32.90;;;27.00;;
7398;SDS011;3740;50.700;7.184;2024-01-11T05:15:00;33.87;;;25.83;;
7398;SDS011;3740;50.700;7.184;2024-01-11T05:17:26;32.37;;;25.37;;
7398;SDS011;3740;50.700;7.184;2024-01-11T05:19:52;29.17;;;23.53;;
7398;SDS011;3740;50.700;7.184;2024-01-11T05:22:17;33.53;;;25.83;;
7398;SDS011;3740;50.700;7.184;2024-01-11T05:24:43;29.10;;;24.77;;
7398;SDS011;3740;50.700;7.184;2024-01-11T05:27:08;29.67;;;23.60;;
7398;SDS011;3740;50.700;7.184;2024-01-11T05:29:34;30.07;;;25.47;;
7398;SDS011;3740;50.700;7.184;2024-01-11T05:32:00;31.03;;;24.47;;
7398;SDS011;3740;50.700;7.184;2024-01-11T05:34:25;30.57;;;25.10;;
7398;SDS011;3740;50.700;7.184;2024-01-11T05:36:51;31.20;;;24.77;;
7398;SDS011;3740;50.700;7.184;2024-01-11T05:39:17;33.70;;;25.40;;
7398;SDS011;3740;50.700;7.184;2024-01-11T05:41:45;29.00;;;23.70;;
7398;SDS011;3740;50.700;7.184;2024-01-11T05:44:11;30.73;;;25.13;;
7398;SDS011;3740;50.700;7.184;2024-01-11T05:46:36;31.93;;;24.40;;
7398;SDS011;3740;50.700;7.184;2024-01-11T05:49:02;32.60;;;25.33;;
7398;SDS011;3740;50.700;7.184;2024-01-11T05:51:28;31.17;;;24.80;;
7398;SDS011;3740;50.700;7.184;2024-01-11T05:53:54;31.67;;;24.50;;
7398;SDS011;3740;50.700;7.184;2024-01-11T05:56:20;30.57;;;23.83;;
7398;SDS011;3740;50.700;7.184;2024-01-11T05:58:46;33.03;;;26.40;;
7398;SDS011;3740;50.700;7.184;2024-01-11T06:01:11;29.90;;;23.60;;
7398;SDS011;3740;50.700;7.184;2024-01-11T06:03:37;30.77;;;25.90;;
7398;SDS011;3740;50.700;7.184;2024-01-11T06:06:05;33.33;;;25.97;;
7398;SDS011;3740;50.700;7.184;2024-01-11T06:08:31;33.53;;;27.07;;
7398;SDS011;3740;50.700;7.184;2024-01-11T06:10:57;31.93;;;25.47;;
7398;SDS011;3740;50.700;7.184;2024-01-11T06:13:23;30.57;;;25.10;;
7398;SDS011;3740;50.700;7.184;2024-01-11T06:15:48;30.17;;;24.63;;
7398;SDS011;3740;50.700;7.184;2024-01-11T06:18:15;32.33;;;25.80;;
7398;SDS011;3740;50.700;7.184;2024-01-11T06:20:40;31.83;;;27.07;;
7398;SDS011;3740;50.700;7.184;2024-01-11T06:23:06;29.83;;;23.87;;
7398;SDS011;3740;50.700;7.184;2024-01-11T06:25:32;33.77;;;24.97;;
7398;SDS011;3740;50.700;7.184;2024-01-11T06:27:57;28.40;;;24.77;;
7398;SDS011;3740;50.700;7.184;2024-01-11T06:30:23;31.10;;;27.60;;
7398;SDS011;3740;50.700;7.184;2024-01-11T06:32:48;33.93;;;28.13;;
7398;SDS011;3740;50.700;7.184;2024-01-11T06:35:14;32.33;;;26.63;;
7398;SDS011;3740;50.700;7.184;2024-01-11T06:37:39;32.13;;;26.30;;
7398;SDS011;3740;50.700;7.184;2024-01-11T06:40:05;32.90;;;25.80;;
7398;SDS011;3740;50.700;7.184;2024-01-11T06:42:33;30.10;;;24.97;;
7398;SDS011;3740;50.700;7.184;2024-01-11T06:44:58;34.53;;;28.13;;
7398;SDS011;3740;50.700;7.184;2024-01-11T06:47:24;33.77;;;26.60;;
7398;SDS011;3740;50.700;7.184;2024-01-11T06:49:50;36.37;;;27.70;;
7398;SDS011;3740;50.700;7.184;2024-01-11T06:52:16;33.87;;;28.00;;
7398;SDS011;3740;50.700;7.184;2024-01-11T06:54:41;33.97;;;26.90;;
7398;SDS011;3740;50.700;7.184;2024-01-11T06:57:07;34.23;;;27.20;;
7398;SDS011;3740;50.700;7.184;2024-01-11T06:59:32;34.20;;;27.47;;
7398;SDS011;3740;50.700;7.184;2024-01-11T07:01:58;36.63;;;28.20;;
7398;SDS011;3740;50.700;7.184;2024-01-11T07:04:24;36.47;;;29.30;;
7398;SDS011;3740;50.700;7.184;2024-01-11T07:06:49;36.43;;;28.67;;
7398;SDS011;3740;50.700;7.184;2024-01-11T07:09:15;35.60;;;28.27;;
7398;SDS011;3740;50.700;7.184;2024-01-11T07:11:42;37.60;;;28.70;;
7398;SDS011;3740;50.700;7.184;2024-01-11T07:14:08;36.73;;;27.63;;
7398;SDS011;3740;50.700;7.184;2024-01-11T07:16:33;35.77;;;27.13;;
7398;SDS011;3740;50.700;7.184;2024-01-11T07:18:59;36.30;;;28.77;;
7398;SDS011;3740;50.700;7.184;2024-01-11T07:21:24;45.97;;;33.90;;
7398;SDS011;3740;50.700;7.184;2024-01-11T07:23:58;46.33;;;33.57;;
7398;SDS011;3740;50.700;7.184;2024-01-11T07:26:24;43.70;;;34.23;;
7398;SDS011;3740;50.700;7.184;2024-01-11T07:28:50;42.10;;;32.77;;
7398;SDS011;3740;50.700;7.184;2024-01-11T07:31:16;40.07;;;32.93;;
7398;SDS011;3740;50.700;7.184;2024-01-11T07:33:42;39.10;;;31.47;;
7398;SDS011;3740;50.700;7.184;2024-01-11T07:36:08;39.70;;;30.97;;
7398;SDS011;3740;50.700;7.184;2024-01-11T07:38:34;40.60;;;31.10;;
7398;SDS011;3740;50.700;7.184;2024-01-11T07:40:59;37.90;;;30.73;;
7398;SDS011;3740;50.700;7.184;2024-01-11T07:43:25;41.30;;;32.00;;
7398;SDS011;3740;50.700;7.184;2024-01-11T07:45:51;42.43;;;32.57;;
7398;SDS011;3740;50.700;7.184;2024-01-11T07:48:17;39.57;;;31.77;;
7398;SDS011;3740;50.700;7.184;2024-01-11T07:50:42;43.33;;;31.97;;
7398;SDS011;3740;50.700;7.184;2024-01-11T07:53:09;41.87;;;31.17;;
7398;SDS011;3740;50.700;7.184;2024-01-11T07:55:34;41.60;;;31.30;;
7398;SDS011;3740;50.700;7.184;2024-01-11T07:58:00;41.83;;;30.47;;
7398;SDS011;3740;50.700;7.184;2024-01-11T08:00:26;38.57;;;29.60;;
7398;SDS011;3740;50.700;7.184;2024-01-11T08:02:51;37.07;;;28.40;;
7398;SDS011;3740;50.700;7.184;2024-01-11T08:05:17;35.67;;;29.23;;
7398;SDS011;3740;50.700;7.184;2024-01-11T08:07:42;40.97;;;29.53;;
7398;SDS011;3740;50.700;7.184;2024-01-11T08:10:08;36.53;;;28.60;;
7398;SDS011;3740;50.700;7.184;2024-01-11T08:12:34;36.37;;;28.97;;
7398;SDS011;3740;50.700;7.184;2024-01-11T08:15:00;38.30;;;29.60;;
7398;SDS011;3740;50.700;7.184;2024-01-11T08:17:25;40.17;;;30.07;;
7398;SDS011;3740;50.700;7.184;2024-01-11T08:19:51;36.53;;;29.33;;
7398;SDS011;3740;50.700;7.184;2024-01-11T08:22:16;36.27;;;29.80;;
7398;SDS011;3740;50.700;7.184;2024-01-11T08:24:42;34.30;;;28.80;;
7398;SDS011;3740;50.700;7.184;2024-01-11T08:27:08;39.23;;;30.17;;
7398;SDS011;3740;50.700;7.184;2024-01-11T08:29:34;36.33;;;28.60;;
7398;SDS011;3740;50.700;7.184;2024-01-11T08:31:59;39.33;;;31.60;;
7398;SDS011;3740;50.700;7.184;2024-01-11T08:34:29;42.67;;;33.30;;
7398;SDS011;3740;50.700;7.184;2024-01-11T08:36:55;42.30;;;34.20;;
7398;SDS011;3740;50.700;7.184;2024-01-11T08:39:20;45.67;;;36.53;;
7398;SDS011;3740;50.700;7.184;2024-01-11T08:41:46;39.23;;;32.83;;
7398;SDS011;3740;50.700;7.184;2024-01-11T08:44:12;39.90;;;32.10;;
7398;SDS011;3740;50.700;7.184;2024-01-11T08:46:38;40.70;;;30.93;;
7398;SDS011;3740;50.700;7.184;2024-01-11T08:49:04;35.90;;;29.93;;
7398;SDS011;3740;50.700;7.184;2024-01-11T08:51:30;39.60;;;30.27;;
7398;SDS011;3740;50.700;7.184;2024-01-11T08:53:57;40.43;;;30.63;;
7398;SDS011;3740;50.700;7.184;2024-01-11T08:56:22;37.60;;;29.30;;
7398;SDS011;3740;50.700;7.184;2024-01-11T08:58:48;38.10;;;31.13;;
7398;SDS011;3740;50.700;7.184;2024-01-11T09:01:17;37.07;;;30.53;;
7398;SDS011;3740;50.700;7.184;2024-01-11T09:03:47;38.27;;;29.30;;
7398;SDS011;3740;50.700;7.184;2024-01-11T09:06:13;34.33;;;28.07;;
7398;SDS011;3740;50.700;7.184;2024-01-11T09:08:38;35.60;;;28.57;;
7398;SDS011;3740;50.700;7.184;2024-01-11T09:11:06;32.80;;;25.70;;
7398;SDS011;3740;50.700;7.184;2024-01-11T09:13:31;35.73;;;26.40;;
7398;SDS011;3740;50.700;7.184;2024-01-11T09:15:57;35.83;;;27.13;;
7398;SDS011;3740;50.700;7.184;2024-01-11T09:18:23;34.80;;;27.73;;
7398;SDS011;3740;50.700;7.184;2024-01-11T09:20:49;35.87;;;28.13;;
7398;SDS011;3740;50.700;7.184;2024-01-11T09:23:15;33.53;;;27.63;;
7398;SDS011;3740;50.700;7.184;2024-01-11T09:25:41;35.47;;;28.27;;
7398;SDS011;3740;50.700;7.184;2024-01-11T09:28:07;35.37;;;27.73;;
7398;SDS011;3740;50.700;7.184;2024-01-11T09:30:32;32.07;;;27.27;;
7398;SDS011;3740;50.700;7.184;2024-01-11T09:32:58;36.17;;;28.40;;
7398;SDS011;3740;50.700;7.184;2024-01-11T09:35:23;35.00;;;27.27;;
7398;SDS011;3740;50.700;7.184;2024-01-11T09:37:49;35.73;;;29.93;;
7398;SDS011;3740;50.700;7.184;2024-01-11T09:40:16;41.90;;;30.37;;
7398;SDS011;3740;50.700;7.184;2024-01-11T09:42:42;39.47;;;30.33;;
7398;SDS011;3740;50.700;7.184;2024-01-11T09:45:14;37.67;;;29.60;;
7398;SDS011;3740;50.700;7.184;2024-01-11T09:47:42;36.20;;;27.93;;
7398;SDS011;3740;50.700;7.184;2024-01-11T09:50:16;34.93;;;26.23;;
7398;SDS011;3740;50.700;7.184;2024-01-11T09:52:46;34.53;;;28.17;;
7398;SDS011;3740;50.700;7.184;2024-01-11T09:55:13;34.70;;;27.73;;
7398;SDS011;3740;50.700;7.184;2024-01-11T09:57:40;34.67;;;26.87;;
7398;SDS011;3740;50.700;7.184;2024-01-11T10:00:09;34.33;;;27.93;;
7398;SDS011;3740;50.700;7.184;2024-01-11T10:02:37;33.10;;;26.53;;
7398;SDS011;3740;50.700;7.184;2024-01-11T10:05:02;34.73;;;27.80;;
7398;SDS011;3740;50.700;7.184;2024-01-11T10:07:28;34.87;;;27.43;;
7398;SDS011;3740;50.700;7.184;2024-01-11T10:09:55;33.90;;;27.47;;
7398;SDS011;3740;50.700;7.184;2024-01-11T10:12:23;32.87;;;26.97;;
7398;SDS011;3740;50.700;7.184;2024-01-11T10:14:50;29.80;;;25.73;;
7398;SDS011;3740;50.700;7.184;2024-01-11T10:17:16;29.77;;;24.03;;
7398;SDS011;3740;50.700;7.184;2024-01-11T10:19:42;27.93;;;24.40;;
7398;SDS011;3740;50.700;7.184;2024-01-11T10:22:08;28.43;;;23.77;;
7398;SDS011;3740;50.700;7.184;2024-01-11T10:24:37;29.47;;;25.13;;
7398;SDS011;3740;50.700;7.184;2024-01-11T10:27:03;29.37;;;24.27;;
7398;SDS011;3740;50.700;7.184;2024-01-11T10:29:31;27.10;;;21.83;;
7398;SDS011;3740;50.700;7.184;2024-01-11T10:31:57;27.00;;;22.00;;
7398;SDS011;3740;50.700;7.184;2024-01-11T10:34:23;29.00;;;23.40;;
7398;SDS011;3740;50.700;7.184;2024-01-11T10:36:49;27.07;;;23.23;;
7398;SDS011;3740;50.700;7.184;2024-01-11T10:39:15;27.67;;;23.00;;
7398;SDS011;3740;50.700;7.184;2024-01-11T10:41:42;25.73;;;22.97;;
7398;SDS011;3740;50.700;7.184;2024-01-11T10:44:23;31.53;;;24.80;;
7398;SDS011;3740;50.700;7.184;2024-01-11T10:46:53;25.17;;;22.42;;
7398;SDS011;3740;50.700;7.184;2024-01-11T10:49:22;25.85;;;23.05;;
7398;SDS011;3740;50.700;7.184;2024-01-11T10:51:53;27.83;;;23.67;;
7398;SDS011;3740;50.700;7.184;2024-01-11T10:54:25;27.23;;;24.30;;
7398;SDS011;3740;50.700;7.184;2024-01-11T10:56:52;28.13;;;24.25;;
7398;SDS011;3740;50.700;7.184;2024-01-11T10:59:19;26.08;;;23.38;;
7398;SDS011;3740;50.700;7.184;2024-01-11T11:01:49;27.38;;;24.48;;
7398;SDS011;3740;50.700;7.184;2024-01-11T11:04:17;28.13;;;25.13;;
7398;SDS011;3740;50.700;7.184;2024-01-11T11:06:44;27.63;;;24.67;;
7398;SDS011;3740;50.700;7.184;2024-01-11T11:09:10;27.53;;;24.17;;
7398;SDS011;3740;50.700;7.184;2024-01-11T11:11:39;26.90;;;23.63;;
7398;SDS011;3740;50.700;7.184;2024-01-11T11:14:04;27.43;;;24.53;;
7398;SDS011;3740;50.700;7.184;2024-01-11T11:16:31;27.30;;;24.27;;
7398;SDS011;3740;50.700;7.184;2024-01-11T11:18:57;27.17;;;23.93;;
7398;SDS011;3740;50.700;7.184;2024-01-11T11:21:22;28.27;;;24.23;;
7398;SDS011;3740;50.700;7.184;2024-01-11T11:23:49;29.60;;;25.30;;
7398;SDS011;3740;50.700;7.184;2024-01-11T11:26:18;30.73;;;25.67;;
7398;SDS011;3740;50.700;7.184;2024-01-11T11:28:44;28.50;;;24.50;;
7398;SDS011;3740;50.700;7.184;2024-01-11T11:31:12;28.67;;;25.43;;
7398;SDS011;3740;50.700;7.184;2024-01-11T11:33:38;30.10;;;26.53;;
7398;SDS011;3740;50.700;7.184;2024-01-11T11:36:05;28.43;;;25.03;;
7398;SDS011;3740;50.700;7.184;2024-01-11T11:38:37;29.57;;;25.83;;
7398;SDS011;3740;50.700;7.184;2024-01-11T11:41:03;28.23;;;25.23;;
7398;SDS011;3740;50.700;7.184;2024-01-11T11:43:29;28.77;;;25.63;;
7398;SDS011;3740;50.700;7.184;2024-01-11T11:45:56;31.40;;;25.87;;
7398;SDS011;3740;50.700;7.184;2024-01-11T11:51:10;30.40;;;27.10;;
7398;SDS011;3740;50.700;7.184;2024-01-11T11:53:37;34.13;;;28.70;;
7398;SDS011;3740;50.700;7.184;2024-01-11T11:56:03;34.97;;;29.07;;
7398;SDS011;3740;50.700;7.184;2024-01-11T11:58:30;37.67;;;29.60;;
7398;SDS011;3740;50.700;7.184;2024-01-11T12:00:57;37.57;;;30.63;;
7398;SDS011;3740;50.700;7.184;2024-01-11T12:03:25;35.70;;;30.70;;
7398;SDS011;3740;50.700;7.184;2024-01-11T12:05:59;35.23;;;30.30;;
7398;SDS011;3740;50.700;7.184;2024-01-11T12:08:25;33.97;;;28.63;;
7398;SDS011;3740;50.700;7.184;2024-01-11T12:10:51;35.63;;;30.40;;
7398;SDS011;3740;50.700;7.184;2024-01-11T12:13:17;34.70;;;28.43;;
7398;SDS011;3740;50.700;7.184;2024-01-11T12:15:43;33.30;;;28.37;;
7398;SDS011;3740;50.700;7.184;2024-01-11T12:18:09;34.40;;;29.67;;
7398;SDS011;3740;50.700;7.184;2024-01-11T12:20:34;36.80;;;29.50;;
7398;SDS011;3740;50.700;7.184;2024-01-11T12:23:00;35.90;;;29.33;;
7398;SDS011;3740;50.700;7.184;2024-01-11T12:25:27;35.03;;;29.90;;
7398;SDS011;3740;50.700;7.184;2024-01-11T12:27:53;35.37;;;28.70;;
7398;SDS011;3740;50.700;7.184;2024-01-11T12:30:23;35.77;;;30.33;;
7398;SDS011;3740;50.700;7.184;2024-01-11T12:32:49;35.87;;;29.33;;
7398;SDS011;3740;50.700;7.184;2024-01-11T12:35:15;34.63;;;27.90;;
7398;SDS011;3740;50.700;7.184;2024-01-11T12:37:52;33.80;;;28.60;;
7398;SDS011;3740;50.700;7.184;2024-01-11T12:40:23;33.37;;;29.40;;
7398;SDS011;3740;50.700;7.184;2024-01-11T12:42:48;32.80;;;28.10;;
7398;SDS011;3740;50.700;7.184;2024-01-11T12:45:15;32.97;;;29.37;;
7398;SDS011;3740;50.700;7.184;2024-01-11T12:47:41;35.03;;;29.83;;
7398;SDS011;3740;50.700;7.184;2024-01-11T12:50:07;40.50;;;30.50;;
7398;SDS011;3740;50.700;7.184;2024-01-11T12:52:32;33.70;;;29.17;;
7398;SDS011;3740;50.700;7.184;2024-01-11T12:54:58;36.93;;;30.47;;
7398;SDS011;3740;50.700;7.184;2024-01-11T12:57:25;39.30;;;32.47;;
7398;SDS011;3740;50.700;7.184;2024-01-11T12:59:51;38.87;;;32.40;;
7398;SDS011;3740;50.700;7.184;2024-01-11T13:02:17;38.33;;;31.53;;
7398;SDS011;3740;50.700;7.184;2024-01-11T13:04:44;38.37;;;33.07;;
7398;SDS011;3740;50.700;7.184;2024-01-11T13:07:13;41.57;;;32.80;;
7398;SDS011;3740;50.700;7.184;2024-01-11T13:09:40;37.80;;;32.80;;
7398;SDS011;3740;50.700;7.184;2024-01-11T13:12:06;43.63;;;34.53;;
7398;SDS011;3740;50.700;7.184;2024-01-11T13:14:32;41.77;;;35.50;;
7398;SDS011;3740;50.700;7.184;2024-01-11T13:16:58;42.07;;;34.97;;
7398;SDS011;3740;50.700;7.184;2024-01-11T13:19:24;42.00;;;35.50;;
7398;SDS011;3740;50.700;7.184;2024-01-11T13:21:49;39.97;;;34.53;;
7398;SDS011;3740;50.700;7.184;2024-01-11T13:24:15;39.23;;;33.93;;
7398;SDS011;3740;50.700;7.184;2024-01-11T13:26:40;39.50;;;34.30;;
7398;SDS011;3740;50.700;7.184;2024-01-11T13:29:06;42.63;;;33.78;;
7398;SDS011;3740;50.700;7.184;2024-01-11T13:31:32;38.67;;;34.43;;
7398;SDS011;3740;50.700;7.184;2024-01-11T13:33:58;40.40;;;35.63;;
7398;SDS011;3740;50.700;7.184;2024-01-11T13:36:24;41.63;;;35.60;;
7398;SDS011;3740;50.700;7.184;2024-01-11T13:38:49;43.23;;;36.93;;
7398;SDS011;3740;50.700;7.184;2024-01-11T13:41:15;41.23;;;34.87;;
7398;SDS011;3740;50.700;7.184;2024-01-11T13:43:42;43.50;;;35.63;;
7398;SDS011;3740;50.700;7.184;2024-01-11T13:46:08;47.03;;;37.30;;
7398;SDS011;3740;50.700;7.184;2024-01-11T13:48:34;41.53;;;35.97;;
7398;SDS011;3740;50.700;7.184;2024-01-11T13:51:00;43.47;;;35.20;;
7398;SDS011;3740;50.700;7.184;2024-01-11T13:53:28;41.97;;;35.40;;
7398;SDS011;3740;50.700;7.184;2024-01-11T13:55:53;43.00;;;34.87;;
7398;SDS011;3740;50.700;7.184;2024-01-11T13:58:20;42.53;;;34.70;;
7398;SDS011;3740;50.700;7.184;2024-01-11T14:00:46;36.00;;;31.80;;
7398;SDS011;3740;50.700;7.184;2024-01-11T14:03:11;41.97;;;35.20;;
7398;SDS011;3740;50.700;7.184;2024-01-11T14:05:37;45.67;;;34.17;;
7398;SDS011;3740;50.700;7.184;2024-01-11T14:08:03;42.13;;;36.07;;
7398;SDS011;3740;50.700;7.184;2024-01-11T14:10:31;47.43;;;34.93;;
7398;SDS011;3740;50.700;7.184;2024-01-11T14:12:58;41.03;;;34.87;;
7398;SDS011;3740;50.700;7.184;2024-01-11T14:15:24;37.67;;;32.37;;
7398;SDS011;3740;50.700;7.184;2024-01-11T14:17:50;40.37;;;35.03;;
7398;SDS011;3740;50.700;7.184;2024-01-11T14:20:16;38.27;;;33.60;;
7398;SDS011;3740;50.700;7.184;2024-01-11T14:22:42;39.13;;;33.77;;
7398;SDS011;3740;50.700;7.184;2024-01-11T14:25:14;38.67;;;33.10;;
7398;SDS011;3740;50.700;7.184;2024-01-11T14:27:51;45.93;;;35.77;;
7398;SDS011;3740;50.700;7.184;2024-01-11T14:30:17;40.53;;;32.97;;
7398;SDS011;3740;50.700;7.184;2024-01-11T14:32:43;43.60;;;33.60;;
7398;SDS011;3740;50.700;7.184;2024-01-11T14:35:10;43.87;;;33.83;;
7398;SDS011;3740;50.700;7.184;2024-01-11T14:37:36;36.17;;;32.00;;
7398;SDS011;3740;50.700;7.184;2024-01-11T14:40:03;43.87;;;33.77;;
7398;SDS011;3740;50.700;7.184;2024-01-11T14:42:30;40.43;;;32.90;;
7398;SDS011;3740;50.700;7.184;2024-01-11T14:44:56;41.10;;;33.77;;
7398;SDS011;3740;50.700;7.184;2024-01-11T14:47:22;36.77;;;32.13;;